Time;durP1;ratioP1;P1;durP2;ratioP2;P2;SDS_P1;SDS_P2;PMS_P1;PMS_P2;Temp;Humidity;BMP_temperature;BMP_pressure;BME280_temperature;BME280_humidity;BME280_pressure;Samples;Min_cycle;Max_cycle;Signal;HPM_P1;HPM_P2
2022/05/11 00:01:38;;;;;;;15.02;8.55;;;12.90;99.90;;;;;;5038084;28;20494;-72
2022/05/11 00:04:05;;;;;;;13.30;8.30;;;12.90;99.90;;;;;;5039997;28;20037;-72
2022/05/11 00:06:32;;;;;;;15.75;7.85;;;13.00;99.90;;;;;;5073776;28;20048;-72
2022/05/11 00:08:58;;;;;;;13.93;7.82;;;12.90;99.90;;;;;;5040950;28;20037;-72
2022/05/11 00:11:26;;;;;;;15.32;7.80;;;12.90;99.90;;;;;;5040695;28;20037;-71
2022/05/11 00:13:52;;;;;;;14.32;7.30;;;12.90;99.90;;;;;;5072318;28;20052;-71
2022/05/11 00:16:18;;;;;;;12.68;7.30;;;12.90;99.90;;;;;;5038198;28;20047;-71
2022/05/11 00:18:43;;;;;;;12.38;6.75;;;12.90;99.90;;;;;;5054654;28;20403;-71
2022/05/11 00:21:10;;;;;;;12.48;7.30;;;12.90;99.90;;;;;;5042914;28;20064;-72
2022/05/11 00:23:36;;;;;;;13.98;7.35;;;12.90;99.90;;;;;;5070637;28;20079;-71
2022/05/11 00:26:01;;;;;;;13.18;6.90;;;12.90;99.90;;;;;;5038766;28;20073;-71
2022/05/11 00:28:27;;;;;;;12.35;6.70;;;12.90;99.90;;;;;;5071217;28;20040;-71
2022/05/11 00:30:52;;;;;;;13.93;6.68;;;12.90;99.90;;;;;;5041497;28;20043;-71
2022/05/11 00:33:19;;;;;;;14.20;6.65;;;12.90;99.90;;;;;;5041230;28;20419;-71
2022/05/11 00:35:47;;;;;;;14.15;7.07;;;12.90;99.90;;;;;;5040689;28;20071;-71
2022/05/11 00:38:14;;;;;;;12.60;6.78;;;12.90;99.90;;;;;;5037682;28;20067;-71
2022/05/11 00:40:58;;;;;;;13.20;6.47;;;12.90;99.90;;;;;;5041006;28;20091;-71
2022/05/11 00:43:32;;;;;;;13.05;6.70;;;12.90;99.90;;;;;;5038203;28;20044;-71
2022/05/11 00:46:09;;;;;;;12.95;6.47;;;12.90;99.90;;;;;;5037075;28;20041;-71
2022/05/11 00:51:19;;;;;;;13.82;6.15;;;12.90;99.90;;;;;;5040331;28;20056;-71
2022/05/11 00:53:50;;;;;;;14.55;6.07;;;12.80;99.90;;;;;;5038544;28;20045;-71
2022/05/11 00:56:16;;;;;;;11.88;5.85;;;12.90;99.90;;;;;;5041249;28;20037;-71
2022/05/11 00:58:49;;;;;;;11.35;6.68;;;12.80;99.90;;;;;;5035498;28;20068;-71
2022/05/11 01:01:15;;;;;;;12.95;6.28;;;12.90;99.90;;;;;;5070405;28;20527;-71
2022/05/11 01:04:12;;;;;;;13.60;5.47;;;12.80;99.90;;;;;;5041016;28;20383;-72
2022/05/11 01:06:39;;;;;;;10.52;5.80;;;12.80;99.90;;;;;;5072674;28;20508;-71
2022/05/11 01:09:06;;;;;;;12.45;6.43;;;12.80;99.90;;;;;;5074095;28;20040;-71
2022/05/11 01:11:36;;;;;;;11.63;6.07;;;12.80;99.90;;;;;;5063410;28;20106;-71
2022/05/11 01:14:03;;;;;;;12.15;6.30;;;12.80;99.90;;;;;;5041534;28;20479;-71
2022/05/11 01:16:29;;;;;;;15.40;6.60;;;12.90;99.90;;;;;;5042967;28;20052;-71
2022/05/11 01:18:57;;;;;;;14.63;6.82;;;12.80;99.90;;;;;;5042505;28;20041;-71
2022/05/11 01:21:46;;;;;;;15.65;7.30;;;12.80;99.90;;;;;;5042245;28;20094;-71
2022/05/11 01:24:39;;;;;;;12.80;6.72;;;12.90;99.90;;;;;;5043677;28;20387;-71
2022/05/11 01:27:29;;;;;;;12.45;6.78;;;12.80;99.90;;;;;;5041841;28;20040;-72
2022/05/11 01:30:00;;;;;;;12.23;6.82;;;12.80;99.90;;;;;;5045304;28;20122;-71
2022/05/11 01:32:26;;;;;;;12.63;6.38;;;12.80;99.90;;;;;;5045694;28;20098;-71
2022/05/11 01:35:31;;;;;;;13.70;6.75;;;12.80;99.90;;;;;;5045671;28;20454;-71
2022/05/11 01:38:21;;;;;;;12.27;6.60;;;12.80;99.90;;;;;;5039034;28;20512;-72
2022/05/11 01:40:47;;;;;;;12.23;6.40;;;12.80;99.90;;;;;;5054498;28;20560;-71
2022/05/11 01:43:21;;;;;;;13.93;6.90;;;12.80;99.90;;;;;;5059087;28;20098;-72
2022/05/11 01:45:47;;;;;;;15.80;6.50;;;12.80;99.90;;;;;;5039757;28;20384;-71
2022/05/11 01:48:13;;;;;;;14.13;6.60;;;12.80;99.90;;;;;;5045145;28;20063;-71
2022/05/11 01:50:38;;;;;;;15.65;6.88;;;12.90;99.90;;;;;;5044499;28;20025;-72
2022/05/11 01:53:05;;;;;;;13.07;6.60;;;12.80;99.90;;;;;;5044393;28;20055;-71
2022/05/11 01:55:32;;;;;;;13.15;6.93;;;12.90;99.90;;;;;;5048640;28;20043;-71
2022/05/11 01:57:58;;;;;;;14.60;7.05;;;12.90;99.90;;;;;;5039111;28;20369;-71
2022/05/11 02:00:23;;;;;;;15.60;6.80;;;12.90;99.90;;;;;;5042159;28;20094;-71
2022/05/11 02:02:50;;;;;;;13.77;7.22;;;12.90;99.90;;;;;;5042128;28;20059;-71
2022/05/11 02:07:59;;;;;;;13.65;6.80;;;12.90;99.90;;;;;;5043424;28;20407;-71
2022/05/11 02:10:27;;;;;;;14.63;6.88;;;12.90;99.90;;;;;;5045212;28;20044;-71
2022/05/11 02:12:55;;;;;;;11.98;6.38;;;12.90;99.90;;;;;;5043065;28;20065;-71
2022/05/11 02:15:21;;;;;;;14.98;7.35;;;13.00;99.90;;;;;;5043668;28;20075;-71
2022/05/11 02:17:47;;;;;;;11.50;6.80;;;13.00;99.90;;;;;;5077499;28;20076;-71
2022/05/11 02:20:15;;;;;;;17.90;6.68;;;13.00;99.90;;;;;;5059417;28;20384;-71
2022/05/11 02:22:42;;;;;;;14.00;6.47;;;13.00;99.90;;;;;;5051720;28;20041;-71
2022/05/11 02:25:08;;;;;;;13.27;6.60;;;13.00;99.90;;;;;;5075231;28;20078;-71
2022/05/11 02:27:34;;;;;;;14.65;6.60;;;13.00;99.90;;;;;;5039918;28;20072;-72
2022/05/11 02:30:00;;;;;;;14.65;7.80;;;13.00;99.90;;;;;;5044238;28;20094;-72
2022/05/11 02:32:26;;;;;;;12.75;6.32;;;13.00;99.90;;;;;;5044333;28;20033;-72
2022/05/11 02:37:36;;;;;;;11.32;6.35;;;13.00;99.90;;;;;;5042843;28;20257;-72
2022/05/11 02:40:02;;;;;;;12.60;5.75;;;13.00;99.90;;;;;;5045673;28;20565;-71
2022/05/11 02:42:28;;;;;;;10.98;6.13;;;13.00;99.90;;;;;;5042895;28;20119;-71
2022/05/11 02:44:54;;;;;;;10.90;5.68;;;13.10;99.90;;;;;;5057872;28;20476;-71
2022/05/11 02:47:19;;;;;;;14.90;6.25;;;13.00;99.90;;;;;;5038987;28;20079;-71
2022/05/11 02:49:45;;;;;;;11.70;6.22;;;13.00;99.90;;;;;;5040325;28;20411;-71
2022/05/11 02:52:11;;;;;;;11.65;6.00;;;13.00;99.90;;;;;;5051082;28;20095;-71
2022/05/11 02:54:37;;;;;;;13.43;6.38;;;13.00;99.90;;;;;;5050289;28;20601;-71
2022/05/11 02:57:03;;;;;;;9.50;5.35;;;13.00;99.90;;;;;;5074570;28;20045;-71
2022/05/11 02:59:29;;;;;;;12.82;5.50;;;13.00;99.90;;;;;;5042786;28;20534;-71
2022/05/11 03:01:56;;;;;;;12.90;5.88;;;13.00;99.90;;;;;;5041436;28;20033;-71
2022/05/11 03:04:22;;;;;;;14.18;5.57;;;13.10;99.90;;;;;;5038915;28;20040;-71
2022/05/11 03:06:47;;;;;;;12.85;6.00;;;13.00;99.90;;;;;;5043688;28;20039;-72
2022/05/11 03:09:17;;;;;;;11.90;5.53;;;13.00;99.90;;;;;;5043391;28;20083;-71
2022/05/11 03:11:44;;;;;;;14.88;5.85;;;13.00;99.90;;;;;;5060663;28;20072;-70
2022/05/11 03:14:09;;;;;;;16.02;5.75;;;13.00;99.90;;;;;;5054848;28;20503;-71
2022/05/11 03:16:39;;;;;;;11.68;5.82;;;13.10;99.90;;;;;;5042717;28;20040;-71
2022/05/11 03:19:05;;;;;;;13.27;6.18;;;13.00;99.90;;;;;;5043496;28;20067;-71
2022/05/11 03:21:32;;;;;;;12.85;5.95;;;13.00;99.90;;;;;;5043649;28;20068;-71
2022/05/11 03:23:57;;;;;;;11.43;5.97;;;13.00;99.90;;;;;;5044435;28;20040;-70
2022/05/11 03:26:23;;;;;;;10.45;5.25;;;13.10;99.90;;;;;;5043137;28;20084;-70
2022/05/11 03:28:49;;;;;;;17.98;5.60;;;13.10;99.90;;;;;;5042056;28;20041;-71
2022/05/11 03:31:14;;;;;;;14.18;5.60;;;13.00;99.90;;;;;;5043033;28;20045;-71
2022/05/11 03:36:26;;;;;;;12.95;5.68;;;13.10;99.90;;;;;;5045614;28;20041;-71
2022/05/11 03:38:52;;;;;;;16.35;5.80;;;13.10;99.90;;;;;;5042994;28;20045;-72
2022/05/11 03:41:18;;;;;;;11.55;5.60;;;13.10;99.90;;;;;;5061071;28;20040;-71
2022/05/11 03:43:44;;;;;;;11.68;5.63;;;13.10;99.90;;;;;;5059573;28;20115;-71
2022/05/11 03:46:10;;;;;;;12.63;5.38;;;13.10;99.90;;;;;;5044325;28;20068;-71
2022/05/11 03:48:37;;;;;;;11.45;5.28;;;13.10;99.90;;;;;;5041402;28;21138;-71
2022/05/11 03:51:03;;;;;;;14.02;5.82;;;13.10;99.90;;;;;;5074111;28;20265;-71
2022/05/11 03:53:30;;;;;;;13.55;5.22;;;13.10;99.90;;;;;;5059151;28;20032;-71
2022/05/11 03:55:56;;;;;;;13.15;5.63;;;13.20;99.90;;;;;;5041519;28;20076;-71
2022/05/11 03:58:21;;;;;;;38.33;6.25;;;13.10;99.90;;;;;;5042979;28;20122;-70
2022/05/11 04:00:47;;;;;;;19.48;5.85;;;13.10;99.90;;;;;;5045214;28;20041;-72
2022/05/11 04:03:13;;;;;;;35.70;7.05;;;13.10;99.90;;;;;;5075207;28;20041;-71
2022/05/11 04:05:38;;;;;;;16.73;6.50;;;13.10;99.90;;;;;;5056316;28;20072;-72
2022/05/11 04:08:04;;;;;;;15.55;6.30;;;13.10;99.90;;;;;;5043602;28;20067;-71
2022/05/11 04:10:29;;;;;;;14.13;6.20;;;13.10;99.90;;;;;;5043223;28;20183;-72
2022/05/11 04:12:55;;;;;;;15.40;6.60;;;13.10;99.90;;;;;;5057484;28;20037;-71
2022/05/11 04:15:21;;;;;;;16.05;6.50;;;13.10;99.90;;;;;;5039182;28;20036;-71
2022/05/11 04:17:46;;;;;;;16.67;7.57;;;13.10;99.90;;;;;;5055115;28;20049;-72
2022/05/11 04:20:15;;;;;;;16.13;7.40;;;13.10;99.90;;;;;;5037716;28;20698;-71
2022/05/11 04:22:41;;;;;;;15.93;6.80;;;13.10;99.90;;;;;;5041934;28;20078;-70
2022/05/11 04:25:07;;;;;;;15.10;7.10;;;13.10;99.90;;;;;;5074812;28;20033;-70
2022/05/11 04:27:34;;;;;;;16.63;6.95;;;13.10;99.90;;;;;;5037755;28;20060;-71
2022/05/11 04:30:01;;;;;;;17.92;7.25;;;13.10;99.90;;;;;;5038248;28;20051;-71
2022/05/11 04:32:27;;;;;;;14.77;7.10;;;13.10;99.90;;;;;;5041808;28;20037;-71
2022/05/11 04:34:52;;;;;;;12.25;7.07;;;13.20;99.90;;;;;;5043273;28;20033;-70
2022/05/11 04:37:18;;;;;;;16.27;7.53;;;13.20;99.90;;;;;;5049336;28;20041;-71
2022/05/11 04:39:44;;;;;;;17.40;8.00;;;13.20;99.90;;;;;;5052250;28;20033;-71
2022/05/11 04:42:14;;;;;;;19.85;8.32;;;13.20;99.90;;;;;;5077463;28;20087;-71
2022/05/11 04:44:39;;;;;;;17.38;6.82;;;13.30;99.90;;;;;;5051566;28;20033;-72
2022/05/11 04:47:07;;;;;;;17.50;7.50;;;13.30;99.90;;;;;;5066622;28;20498;-71
2022/05/11 04:49:33;;;;;;;19.50;7.60;;;13.30;99.90;;;;;;5058521;28;20039;-70
2022/05/11 04:52:02;;;;;;;21.77;7.43;;;13.30;99.90;;;;;;5078387;28;20049;-70
2022/05/11 04:54:27;;;;;;;16.98;7.80;;;13.30;99.90;;;;;;5024121;28;20064;-71
2022/05/11 04:56:53;;;;;;;17.05;8.18;;;13.40;99.90;;;;;;5038740;28;20072;-70
2022/05/11 04:59:19;;;;;;;20.73;8.63;;;13.40;99.90;;;;;;5025802;28;20033;-71
2022/05/11 05:01:47;;;;;;;17.25;7.88;;;13.40;99.90;;;;;;5041635;28;20054;-71
2022/05/11 05:04:13;;;;;;;20.85;7.88;;;13.40;99.90;;;;;;5049027;28;20041;-71
2022/05/11 05:06:38;;;;;;;16.67;7.53;;;13.40;99.90;;;;;;5047743;28;20060;-70
2022/05/11 05:09:05;;;;;;;17.35;8.07;;;13.50;99.90;;;;;;5046527;28;20432;-70
2022/05/11 05:11:31;;;;;;;17.58;8.13;;;13.50;99.90;;;;;;5049446;28;20082;-70
2022/05/11 05:13:57;;;;;;;14.65;7.20;;;13.50;99.90;;;;;;5062164;28;20492;-70
2022/05/11 05:16:23;;;;;;;16.42;7.97;;;13.50;99.90;;;;;;5078947;28;20570;-70
2022/05/11 05:18:49;;;;;;;18.65;7.68;;;13.50;99.90;;;;;;5030769;28;20174;-70
2022/05/11 05:21:15;;;;;;;17.40;7.68;;;13.60;99.90;;;;;;5049179;28;20090;-70
2022/05/11 05:23:40;;;;;;;16.90;7.88;;;13.60;99.90;;;;;;5048058;28;20383;-71
2022/05/11 05:26:06;;;;;;;17.77;7.95;;;13.70;99.90;;;;;;5043532;28;20047;-70
2022/05/11 05:31:18;;;;;;;18.45;8.05;;;13.80;99.90;;;;;;5075757;28;20098;-70
2022/05/11 05:33:44;;;;;;;18.55;7.75;;;13.80;99.90;;;;;;5045561;28;20033;-71
2022/05/11 05:36:11;;;;;;;13.77;7.57;;;13.90;99.90;;;;;;5044989;28;20132;-70
2022/05/11 05:38:38;;;;;;;16.77;7.80;;;14.00;99.90;;;;;;5042180;28;20056;-69
2022/05/11 05:41:09;;;;;;;14.90;7.40;;;14.00;99.90;;;;;;5076730;28;20495;-70
2022/05/11 05:43:35;;;;;;;16.05;7.07;;;14.00;99.90;;;;;;5043688;28;20041;-69
2022/05/11 05:46:00;;;;;;;15.27;7.50;;;14.10;99.90;;;;;;5065552;28;20045;-69
2022/05/11 05:48:26;;;;;;;18.85;6.95;;;14.10;99.90;;;;;;5056419;28;20051;-70
2022/05/11 05:50:52;;;;;;;17.75;7.38;;;14.10;99.90;;;;;;5054310;28;20040;-70
2022/05/11 05:53:21;;;;;;;14.85;7.28;;;14.10;99.90;;;;;;5037622;28;20041;-70
2022/05/11 05:55:48;;;;;;;21.67;7.03;;;14.10;99.90;;;;;;5046553;28;20080;-70
2022/05/11 05:58:15;;;;;;;17.02;7.38;;;14.10;99.90;;;;;;5042582;28;20102;-70
2022/05/11 06:00:41;;;;;;;20.48;6.65;;;14.10;99.90;;;;;;5074695;28;20040;-71
2022/05/11 06:03:07;;;;;;;13.25;6.35;;;14.20;99.90;;;;;;5046044;28;20064;-71
2022/05/11 06:05:32;;;;;;;17.40;6.38;;;14.20;99.90;;;;;;5043944;28;20033;-70
2022/05/11 06:07:58;;;;;;;15.55;6.88;;;14.20;99.90;;;;;;5046413;28;20092;-71
2022/05/11 06:10:26;;;;;;;16.67;6.38;;;14.30;99.90;;;;;;5050082;28;20040;-69
2022/05/11 06:12:52;;;;;;;15.23;6.40;;;14.30;99.90;;;;;;5051501;28;20040;-70
2022/05/11 06:15:18;;;;;;;14.27;6.03;;;14.30;99.90;;;;;;5050450;28;20033;-69
2022/05/11 06:17:44;;;;;;;17.33;6.00;;;14.30;99.90;;;;;;5050123;28;20036;-68
2022/05/11 06:20:11;;;;;;;17.63;5.68;;;14.40;99.90;;;;;;5081701;28;20029;-70
2022/05/11 06:22:36;;;;;;;11.40;5.53;;;14.40;99.90;;;;;;5051027;28;20033;-68
2022/05/11 06:25:03;;;;;;;16.90;6.47;;;14.50;99.90;;;;;;5065751;28;20029;-68
2022/05/11 06:27:29;;;;;;;12.55;5.57;;;14.50;99.90;;;;;;5034313;28;20400;-68
2022/05/11 06:30:00;;;;;;;14.73;5.93;;;14.50;99.90;;;;;;5050127;28;20033;-68
2022/05/11 06:32:26;;;;;;;13.55;5.55;;;14.50;99.90;;;;;;5050659;28;20045;-70
2022/05/11 06:34:53;;;;;;;11.85;5.78;;;14.60;99.90;;;;;;5050539;28;20068;-67
2022/05/11 06:37:20;;;;;;;11.48;5.22;;;14.70;99.90;;;;;;5050517;28;20037;-65
2022/05/11 06:39:45;;;;;;;11.30;4.90;;;14.70;99.90;;;;;;5050084;28;20045;-68
2022/05/11 06:42:13;;;;;;;13.52;5.60;;;14.70;99.90;;;;;;5050886;28;20041;-69
2022/05/11 06:44:39;;;;;;;14.85;4.78;;;14.80;99.90;;;;;;5045948;28;20045;-66
2022/05/11 06:47:05;;;;;;;14.77;5.28;;;14.90;99.90;;;;;;5045937;28;20049;-66
2022/05/11 06:49:32;;;;;;;16.85;4.90;;;14.90;99.90;;;;;;5083524;28;20051;-68
2022/05/11 06:51:57;;;;;;;12.70;4.13;;;15.00;99.90;;;;;;5050231;28;20040;-71
2022/05/11 06:59:56;;;;;;;10.05;3.45;;;15.10;99.90;;;;;;5057605;28;20156;-67
2022/05/11 07:02:22;;;;;;;8.55;3.67;;;15.10;99.90;;;;;;5057080;28;20049;-66
2022/05/11 07:04:48;;;;;;;10.85;3.42;;;15.20;99.90;;;;;;5050342;28;20047;-67
2022/05/11 07:07:14;;;;;;;10.63;3.40;;;15.30;99.90;;;;;;5050203;28;20079;-68
2022/05/11 07:09:40;;;;;;;7.63;2.80;;;15.30;99.90;;;;;;5049170;28;20041;-67
2022/05/11 07:12:18;;;;;;;10.13;3.30;;;15.40;99.90;;;;;;5050400;28;20455;-74
2022/05/11 07:14:44;;;;;;;12.63;3.17;;;15.50;99.90;;;;;;5082781;28;20048;-72
2022/05/11 07:17:10;;;;;;;11.80;3.10;;;15.50;99.90;;;;;;5057801;28;20111;-69
2022/05/11 07:19:41;;;;;;;10.40;2.90;;;15.40;99.90;;;;;;5050176;28;20036;-72
2022/05/11 07:22:07;;;;;;;9.15;3.00;;;15.40;99.90;;;;;;5054715;28;20036;-69
2022/05/11 07:24:33;;;;;;;8.68;2.70;;;15.40;99.90;;;;;;5069555;28;20060;-66
2022/05/11 07:26:59;;;;;;;10.43;2.70;;;15.50;99.90;;;;;;5054529;28;20374;-67
2022/05/11 07:29:25;;;;;;;10.73;2.80;;;15.60;99.90;;;;;;5049006;28;20111;-68
2022/05/11 07:31:51;;;;;;;7.28;2.80;;;15.60;99.90;;;;;;5032549;28;20052;-68
2022/05/11 07:34:17;;;;;;;6.60;2.83;;;15.70;99.90;;;;;;5048520;28;20044;-72
2022/05/11 07:36:43;;;;;;;11.02;3.03;;;15.70;99.90;;;;;;5081870;28;20741;-67
2022/05/11 07:39:09;;;;;;;8.05;2.53;;;15.70;99.90;;;;;;5048012;28;20037;-66
2022/05/11 07:41:34;;;;;;;8.40;3.20;;;15.80;99.90;;;;;;5062019;28;20479;-68
2022/05/11 07:44:00;;;;;;;9.52;2.80;;;15.70;99.90;;;;;;5053958;28;20155;-69
2022/05/11 07:46:33;;;;;;;11.70;2.95;;;15.80;99.90;;;;;;5049102;28;20182;-68
2022/05/11 07:49:00;;;;;;;8.20;2.50;;;15.80;99.90;;;;;;5048597;28;20404;-74
2022/05/11 07:51:26;;;;;;;11.07;2.85;;;15.80;99.90;;;;;;5049998;28;20052;-68
2022/05/11 07:53:52;;;;;;;10.20;2.97;;;15.70;99.90;;;;;;5048111;28;20041;-67
2022/05/11 08:01:46;;;;;;;9.23;2.63;;;16.10;99.90;;;;;;5049041;28;20091;-68
2022/05/11 08:04:12;;;;;;;6.82;2.33;;;16.40;99.90;;;;;;5049061;28;20032;-74
2022/05/11 08:06:37;;;;;;;13.23;2.63;;;16.50;99.90;;;;;;5045999;28;20404;-67
2022/05/11 08:09:03;;;;;;;9.77;2.53;;;16.60;99.90;;;;;;5048031;28;20036;-71
2022/05/11 08:11:30;;;;;;;8.40;2.35;;;16.60;99.90;;;;;;5047366;28;20041;-72
2022/05/11 08:13:56;;;;;;;13.07;2.58;;;16.60;99.90;;;;;;5081757;28;20041;-66
2022/05/11 08:16:22;;;;;;;10.45;2.47;;;16.50;99.90;;;;;;5081837;28;20109;-71
2022/05/11 08:18:47;;;;;;;14.50;2.88;;;16.60;99.90;;;;;;5043588;28;20041;-70
2022/05/11 08:21:13;;;;;;;10.68;2.90;;;16.70;99.90;;;;;;5062290;28;20102;-72
2022/05/11 08:23:39;;;;;;;10.20;3.13;;;16.70;99.90;;;;;;5046506;28;20029;-71
2022/05/11 08:26:05;;;;;;;11.48;2.88;;;16.70;99.90;;;;;;5048437;28;20049;-72
2022/05/11 08:28:30;;;;;;;12.63;2.42;;;16.70;99.90;;;;;;5048786;28;20404;-72
2022/05/11 08:33:41;;;;;;;11.98;2.78;;;16.90;99.90;;;;;;5048826;28;20178;-73
2022/05/11 08:36:13;;;;;;;10.98;3.00;;;17.20;99.90;;;;;;5049556;28;20101;-72
2022/05/11 08:38:42;;;;;;;11.95;2.70;;;17.20;99.90;;;;;;5051326;28;20044;-66
2022/05/11 08:41:32;;;;;;;12.30;2.80;;;17.40;99.90;;;;;;5053437;28;20158;-69
2022/05/11 08:44:03;;;;;;;12.43;2.50;;;17.60;99.90;;;;;;5066464;28;20037;-71
2022/05/11 08:46:47;;;;;;;10.23;2.63;;;17.60;99.90;;;;;;5033114;28;20350;-74
2022/05/11 08:49:46;;;;;;;12.15;3.17;;;17.60;99.90;;;;;;5035203;28;20455;-70
2022/05/11 08:52:35;;;;;;;11.65;3.15;;;17.20;99.90;;;;;;5069999;28;20064;-72
2022/05/11 08:55:12;;;;;;;12.90;2.97;;;17.20;99.90;;;;;;5049660;28;20499;-72
2022/05/11 08:57:39;;;;;;;12.90;3.63;;;17.10;99.90;;;;;;5052196;28;20546;-71
2022/05/11 09:00:11;;;;;;;7.95;2.50;;;17.20;99.90;;;;;;5051587;28;20119;-73
2022/05/11 09:02:59;;;;;;;8.82;2.60;;;17.30;99.90;;;;;;5051104;28;20161;-69
2022/05/11 09:05:28;;;;;;;13.38;2.67;;;17.50;99.90;;;;;;5032663;28;20033;-68
2022/05/11 09:07:55;;;;;;;7.10;2.47;;;17.60;99.90;;;;;;5032495;28;20060;-74
2022/05/11 09:10:30;;;;;;;12.60;3.00;;;17.80;99.90;;;;;;5046529;28;20105;-70
2022/05/11 09:13:09;;;;;;;10.45;2.42;;;17.80;99.90;;;;;;5052037;28;20450;-70
2022/05/11 09:15:53;;;;;;;10.15;2.10;;;17.90;99.90;;;;;;5050610;28;20491;-73
2022/05/11 09:18:31;;;;;;;12.45;2.40;;;17.80;99.90;;;;;;5051781;28;20037;-69
2022/05/11 09:21:02;;;;;;;9.15;1.92;;;17.90;99.90;;;;;;5051398;28;20453;-67
2022/05/11 09:23:40;;;;;;;8.93;2.25;;;17.90;99.90;;;;;;5035972;28;20033;-74
2022/05/11 09:26:08;;;;;;;8.70;2.35;;;18.20;99.90;;;;;;5032457;28;20132;-72
2022/05/11 09:28:39;;;;;;;6.22;1.80;;;18.30;99.90;;;;;;5065496;28;20053;-75
2022/05/11 09:31:34;;;;;;;7.60;1.93;;;18.00;99.90;;;;;;5031373;28;20357;-70
2022/05/11 09:34:05;;;;;;;8.88;1.98;;;18.00;99.90;;;;;;5071382;28;20053;-72
2022/05/11 09:37:02;;;;;;;9.25;1.77;;;18.00;99.90;;;;;;5085732;28;20091;-72
2022/05/11 09:39:29;;;;;;;7.43;2.00;;;18.10;99.90;;;;;;5085016;28;20138;-68
2022/05/11 09:42:10;;;;;;;9.80;1.70;;;18.10;99.90;;;;;;5049688;28;20399;-70
2022/05/11 09:44:44;;;;;;;8.65;2.00;;;18.30;99.90;;;;;;5050293;28;20555;-68
2022/05/11 09:47:30;;;;;;;8.57;2.42;;;18.50;99.90;;;;;;5081796;28;20049;-73
2022/05/11 09:50:20;;;;;;;9.38;1.83;;;18.60;99.90;;;;;;5084266;28;20044;-72
2022/05/11 09:52:46;;;;;;;8.52;2.15;;;18.30;99.90;;;;;;5083836;28;20682;-68
2022/05/11 09:55:27;;;;;;;10.73;2.00;;;18.20;99.90;;;;;;5049496;28;20037;-73
2022/05/11 09:58:07;;;;;;;11.32;2.20;;;18.20;99.90;;;;;;5049491;28;20084;-69
2022/05/11 10:00:38;;;;;;;8.68;2.05;;;18.30;99.90;;;;;;5083980;28;20105;-68
2022/05/11 10:03:10;;;;;;;8.65;2.70;;;18.30;99.90;;;;;;5052670;28;20518;-67
2022/05/11 10:05:42;;;;;;;9.07;2.40;;;18.10;99.90;;;;;;5070182;28;20072;-72
2022/05/11 10:08:29;;;;;;;9.50;2.35;;;18.00;99.90;;;;;;5051675;28;20045;-69
2022/05/11 10:11:00;;;;;;;10.27;2.70;;;17.90;99.90;;;;;;5047618;28;20422;-69
2022/05/11 10:13:40;;;;;;;8.30;2.50;;;18.00;99.90;;;;;;5033484;28;20044;-72
2022/05/11 10:22:28;;;;;;;10.15;2.03;;;18.80;99.90;;;;;;5050172;28;20044;-69
2022/05/11 10:24:53;;;;;;;10.57;1.80;;;18.90;99.90;;;;;;5034192;28;20403;-73
2022/05/11 10:27:55;;;;;;;6.78;1.90;;;18.80;99.90;;;;;;5054910;28;20037;-71
2022/05/11 10:30:42;;;;;;;7.22;2.42;;;18.60;99.90;;;;;;5044621;28;20376;-71
2022/05/11 10:33:23;;;;;;;9.10;2.60;;;18.80;99.90;;;;;;5034447;28;20068;-66
2022/05/11 10:36:21;;;;;;;9.82;2.92;;;19.10;99.90;;;;;;5049821;28;20044;-77
2022/05/11 10:38:47;;;;;;;9.88;2.47;;;19.40;99.90;;;;;;5050191;28;20037;-68
2022/05/11 10:41:26;;;;;;;9.00;2.20;;;19.30;99.90;;;;;;5050209;28;20044;-73
2022/05/11 10:44:02;;;;;;;13.30;2.50;;;19.10;99.90;;;;;;5046108;28;20373;-71
2022/05/11 10:46:55;;;;;;;12.02;2.47;;;19.10;99.90;;;;;;5030778;28;20041;-68
2022/05/11 10:49:33;;;;;;;14.25;2.67;;;19.00;99.90;;;;;;5063874;28;20041;-67
2022/05/11 10:52:33;;;;;;;13.55;2.83;;;19.10;99.90;;;;;;5076220;28;20033;-74
2022/05/11 10:55:34;;;;;;;12.65;2.80;;;18.90;99.90;;;;;;5061354;28;20495;-67
2022/05/11 10:58:10;;;;;;;12.35;2.83;;;19.10;99.90;;;;;;5050267;28;20041;-67
2022/05/11 11:00:44;;;;;;;12.40;2.63;;;19.20;99.90;;;;;;5049970;28;20459;-66
2022/05/11 11:03:23;;;;;;;15.43;3.22;;;19.00;99.90;;;;;;5081694;28;20070;-69
2022/05/11 11:09:09;;;;;;;14.18;2.95;;;19.00;99.90;;;;;;5054291;28;20510;-70
2022/05/11 11:11:54;;;;;;;13.32;3.20;;;19.10;99.90;;;;;;5053254;28;20044;-70
2022/05/11 11:14:33;;;;;;;10.40;2.92;;;19.30;99.90;;;;;;5081666;28;20068;-68
2022/05/11 11:17:02;;;;;;;11.02;2.55;;;19.50;99.90;;;;;;5050842;28;20100;-70
2022/05/11 11:19:28;;;;;;;13.35;2.83;;;19.60;99.90;;;;;;5057686;28;20064;-70
2022/05/11 11:21:56;;;;;;;9.95;2.55;;;19.30;99.90;;;;;;5033011;28;20518;-67
2022/05/11 11:24:27;;;;;;;12.60;2.80;;;19.30;99.90;;;;;;5049772;28;20040;-67
2022/05/11 11:26:57;;;;;;;14.30;3.40;;;19.40;99.90;;;;;;5049194;28;20143;-66
2022/05/11 11:29:28;;;;;;;12.25;2.67;;;19.40;99.90;;;;;;5048076;28;20056;-68
2022/05/11 11:31:59;;;;;;;12.20;3.00;;;19.40;99.90;;;;;;5049234;28;20387;-74
2022/05/11 11:34:31;;;;;;;20.02;3.53;;;19.30;99.90;;;;;;5048534;28;20515;-68
2022/05/11 11:36:59;;;;;;;14.88;3.20;;;19.30;99.90;;;;;;5051286;28;20051;-66
2022/05/11 11:39:52;;;;;;;12.73;2.90;;;19.40;99.90;;;;;;5068966;28;20283;-72
2022/05/11 11:42:35;;;;;;;7.93;2.78;;;19.60;99.90;;;;;;5069204;28;20040;-68
2022/05/11 11:45:02;;;;;;;17.20;3.33;;;19.60;99.90;;;;;;5069507;28;20049;-68
2022/05/11 11:47:28;;;;;;;10.30;2.92;;;19.70;99.90;;;;;;5061624;28;20044;-71
2022/05/11 11:49:55;;;;;;;11.63;2.88;;;19.90;99.90;;;;;;5032222;28;20041;-74
2022/05/11 11:52:43;;;;;;;11.43;2.88;;;20.00;99.90;;;;;;5049831;28;20033;-70
2022/05/11 11:55:18;;;;;;;14.60;3.35;;;20.20;99.90;;;;;;5049210;28;20041;-68
2022/05/11 11:57:48;;;;;;;12.98;3.00;;;20.30;99.90;;;;;;5049333;28;20045;-75
2022/05/11 12:00:28;;;;;;;11.20;2.83;;;20.40;99.90;;;;;;5048967;28;20072;-74
2022/05/11 12:02:55;;;;;;;12.85;2.92;;;20.40;99.90;;;;;;5035624;28;20430;-69
2022/05/11 12:05:24;;;;;;;12.40;2.97;;;20.40;99.90;;;;;;5034874;28;20414;-68
2022/05/11 12:16:54;;;;;;;7.85;2.63;;;20.10;99.90;;;;;;5028839;28;20128;-68
2022/05/11 12:19:23;;;;;;;13.20;3.17;;;20.20;99.90;;;;;;5062002;28;20077;-74
2022/05/11 12:21:58;;;;;;;10.95;2.70;;;20.30;99.90;;;;;;5071758;28;20033;-73
2022/05/11 12:25:17;;;;;;;11.52;2.72;;;20.40;99.90;;;;;;5082682;28;20037;-67
2022/05/11 12:27:43;;;;;;;8.13;2.60;;;20.50;99.90;;;;;;5042729;28;20063;-71
2022/05/11 12:30:22;;;;;;;14.63;3.10;;;20.50;99.90;;;;;;5063049;28;20037;-73
2022/05/11 12:32:50;;;;;;;9.85;2.88;;;20.40;99.90;;;;;;5047636;28;20045;-69
2022/05/11 12:35:19;;;;;;;14.68;2.88;;;20.50;99.90;;;;;;5045604;28;20408;-71
2022/05/11 12:38:09;;;;;;;9.38;2.80;;;20.30;99.90;;;;;;5044438;28;20099;-74
2022/05/11 12:40:41;;;;;;;9.93;2.60;;;20.20;99.90;;;;;;5046477;28;20040;-70
2022/05/11 12:43:24;;;;;;;9.25;3.05;;;20.20;99.90;;;;;;5081444;28;20041;-67
2022/05/11 12:45:50;;;;;;;;;;;20.20;99.90;;;;;;5048480;28;20116;-71
2022/05/11 12:48:17;;;;;;;13.90;3.40;;;20.30;99.90;;;;;;5048835;28;20335;-75
2022/05/11 12:51:06;;;;;;;14.13;3.17;;;20.30;99.90;;;;;;5047752;28;20041;-68
2022/05/11 12:53:36;;;;;;;16.95;3.17;;;20.40;99.90;;;;;;5080370;28;20044;-73
2022/05/11 12:56:27;;;;;;;16.58;3.55;;;20.50;99.90;;;;;;5028812;28;20037;-70
2022/05/11 12:59:04;;;;;;;13.77;3.72;;;20.60;99.90;;;;;;5028659;28;20261;-71
2022/05/11 13:01:33;;;;;;;16.08;3.20;;;20.20;99.90;;;;;;5028271;28;20041;-69
2022/05/11 13:04:00;;;;;;;16.02;3.40;;;20.00;99.90;;;;;;5036836;28;20047;-74
2022/05/11 13:06:43;;;;;;;13.48;3.45;;;20.00;99.90;;;;;;5046539;28;20041;-74
2022/05/11 13:09:24;;;;;;;14.35;3.20;;;20.10;99.90;;;;;;5012437;28;20041;-67
2022/05/11 13:11:50;;;;;;;19.15;3.40;;;20.10;99.90;;;;;;5048479;28;20500;-69
2022/05/11 13:14:19;;;;;;;15.18;4.00;;;19.90;99.90;;;;;;5048592;28;20045;-69
2022/05/11 13:16:53;;;;;;;11.60;3.00;;;19.80;99.90;;;;;;5047194;28;20037;-72
2022/05/11 13:19:29;;;;;;;16.25;3.45;;;19.80;99.90;;;;;;5047895;28;20044;-68
2022/05/11 13:21:58;;;;;;;15.10;3.40;;;19.70;99.90;;;;;;5048884;28;20103;-73
2022/05/11 13:24:43;;;;;;;12.50;3.50;;;19.90;99.90;;;;;;5055970;28;20036;-73
2022/05/11 13:27:48;;;;;;;14.02;3.55;;;20.10;99.90;;;;;;5065422;28;20102;-70
2022/05/11 13:30:28;;;;;;;18.65;3.50;;;20.20;99.90;;;;;;5034499;28;20037;-70
2022/05/11 13:32:58;;;;;;;12.80;3.63;;;20.20;99.90;;;;;;5065918;28;20056;-68
2022/05/11 13:35:38;;;;;;;12.75;3.47;;;20.40;99.90;;;;;;5033836;28;20152;-70
2022/05/11 13:38:10;;;;;;;10.95;3.28;;;20.40;99.90;;;;;;5053891;28;20045;-73
2022/05/11 13:40:39;;;;;;;14.50;2.85;;;20.20;99.90;;;;;;5050008;28;20086;-71
2022/05/11 13:43:25;;;;;;;15.60;3.50;;;20.30;99.90;;;;;;5049717;28;20132;-69